createdAt,value
2023-05-10T00:01:38.946Z,9.30
2023-05-10T00:04:41.214Z,9.32
2023-05-10T00:07:45.875Z,9.22
2023-05-10T00:10:48.355Z,9.25
2023-05-10T00:13:50.733Z,9.25
2023-05-10T00:16:53.168Z,9.11
2023-05-10T00:19:55.662Z,9.13
2023-05-10T00:22:57.940Z,9.01
2023-05-10T00:26:00.198Z,8.98
2023-05-10T00:29:02.542Z,8.96
2023-05-10T00:32:05.120Z,9.07
2023-05-10T00:35:07.792Z,9.09
2023-05-10T00:38:10.220Z,9.00
2023-05-10T00:41:12.503Z,8.99
2023-05-10T00:44:16.477Z,9.00
2023-05-10T00:47:18.769Z,8.96
2023-05-10T00:50:21.075Z,9.11
2023-05-10T00:53:23.476Z,9.12
2023-05-10T00:56:26.591Z,9.12
2023-05-10T00:59:29.726Z,9.23
2023-05-10T01:02:32.095Z,9.04
2023-05-10T01:05:34.468Z,9.17
2023-05-10T01:08:37.763Z,9.06
2023-05-10T01:11:41.067Z,9.12
2023-05-10T01:14:44.196Z,9.03
2023-05-10T01:17:48.432Z,9.04
2023-05-10T01:21:04.374Z,9.27
2023-05-10T01:24:18.745Z,9.22
2023-05-10T01:27:48.798Z,9.25
2023-05-10T01:31:33.120Z,9.04
2023-05-10T01:34:45.036Z,9.15
2023-05-10T01:38:19.584Z,9.32
2023-05-10T01:41:37.350Z,9.38
2023-05-10T01:44:59.585Z,9.34
2023-05-10T01:48:12.202Z,9.02
2023-05-10T01:51:20.711Z,8.45
2023-05-10T01:54:24.702Z,8.74
2023-05-10T01:57:29.032Z,8.80
2023-05-10T02:00:34.485Z,8.88
2023-05-10T02:03:39.422Z,8.95
2023-05-10T02:06:43.901Z,9.01
2023-05-10T02:09:50.861Z,9.10
2023-05-10T02:12:56.235Z,9.18
2023-05-10T02:16:00.156Z,9.10
2023-05-10T02:19:03.704Z,9.12
2023-05-10T02:22:07.164Z,9.20
2023-05-10T02:25:10.257Z,9.18
2023-05-10T02:28:13.832Z,9.12
2023-05-10T02:31:16.484Z,9.03
2023-05-10T02:34:18.902Z,9.12
2023-05-10T02:37:22.988Z,9.19
2023-05-10T02:40:28.764Z,9.11
2023-05-10T02:43:34.645Z,9.19
2023-05-10T02:46:38.635Z,9.24
2023-05-10T02:49:41.233Z,9.23
2023-05-10T02:52:49.057Z,9.23
2023-05-10T02:55:53.823Z,9.25
2023-05-10T02:58:56.597Z,9.17
2023-05-10T03:02:00.896Z,9.25
2023-05-10T03:05:04.123Z,9.12
2023-05-10T03:08:07.195Z,9.27
2023-05-10T03:11:40.889Z,9.30
2023-05-10T03:14:56.613Z,9.47
2023-05-10T03:18:29.629Z,9.32
2023-05-10T03:21:32.883Z,9.31
2023-05-10T03:24:37.758Z,9.31
2023-05-10T03:27:42.985Z,9.33
2023-05-10T03:30:47.189Z,9.31
2023-05-10T03:33:50.782Z,8.69
2023-05-10T03:36:58.182Z,8.83
2023-05-10T03:40:04.868Z,8.90
2023-05-10T03:43:10.418Z,8.95
2023-05-10T03:46:12.995Z,8.97
2023-05-10T03:49:15.526Z,8.81
2023-05-10T03:52:19.111Z,9.01
2023-05-10T03:55:21.780Z,9.10
2023-05-10T03:58:24.382Z,9.16
2023-05-10T04:01:26.770Z,9.33
2023-05-10T04:04:29.309Z,9.19
2023-05-10T04:07:31.707Z,9.23
2023-05-10T04:10:34.246Z,9.18
2023-05-10T04:13:36.680Z,9.21
2023-05-10T04:16:39.614Z,9.24
2023-05-10T04:19:41.870Z,9.16
2023-05-10T04:22:44.216Z,8.89
2023-05-10T04:25:46.516Z,9.07
2023-05-10T04:28:48.842Z,9.19
2023-05-10T04:31:51.970Z,9.34
2023-05-10T04:34:54.483Z,9.46
2023-05-10T04:37:57.145Z,9.57
2023-05-10T04:41:10.478Z,9.67
2023-05-10T04:44:12.811Z,9.84
2023-05-10T04:47:15.176Z,9.88
2023-05-10T04:50:17.772Z,10.14
2023-05-10T04:53:20.630Z,10.13
2023-05-10T04:56:23.531Z,10.31
2023-05-10T04:59:25.862Z,10.48
2023-05-10T05:02:28.305Z,10.67
2023-05-10T05:05:30.703Z,10.87
2023-05-10T05:08:33.078Z,11.11
2023-05-10T05:11:35.565Z,11.30
2023-05-10T05:14:37.857Z,11.21
2023-05-10T05:17:40.217Z,11.23
2023-05-10T05:20:42.632Z,11.11
2023-05-10T05:23:45.031Z,11.52
2023-05-10T05:26:47.485Z,11.95
2023-05-10T05:29:49.803Z,12.06
2023-05-10T05:32:52.593Z,12.31
2023-05-10T05:35:55.026Z,12.70
2023-05-10T05:38:57.609Z,12.69
2023-05-10T05:42:00.033Z,13.27
2023-05-10T05:45:02.373Z,13.50
2023-05-10T05:48:05.358Z,14.02
2023-05-10T05:51:07.686Z,14.12
2023-05-10T05:54:10.120Z,14.22
2023-05-10T05:57:12.842Z,14.32
2023-05-10T06:00:15.578Z,16.13
2023-05-10T06:03:18.012Z,16.43
2023-05-10T06:06:20.802Z,16.98
2023-05-10T06:09:24.951Z,19.00
2023-05-10T06:12:27.300Z,19.71
2023-05-10T06:15:29.630Z,19.48
2023-05-10T06:18:32.122Z,20.96
2023-05-10T06:21:34.478Z,20.42
2023-05-10T06:24:36.864Z,20.15
2023-05-10T06:27:39.379Z,19.99
2023-05-10T06:30:41.632Z,19.86
2023-05-10T06:33:43.931Z,19.87
2023-05-10T06:36:46.582Z,18.20
2023-05-10T06:39:49.525Z,17.59
2023-05-10T06:42:52.276Z,16.88
2023-05-10T06:45:54.629Z,16.51
2023-05-10T06:48:56.959Z,16.56
2023-05-10T06:51:59.261Z,17.00
2023-05-10T06:55:01.551Z,17.24
2023-05-10T06:58:04.001Z,16.99
2023-05-10T07:01:06.955Z,17.49
2023-05-10T07:04:09.635Z,17.63
2023-05-10T07:07:12.092Z,18.06
2023-05-10T07:10:14.577Z,17.78
2023-05-10T07:13:17.040Z,18.64
2023-05-10T07:16:19.916Z,19.11
2023-05-10T07:19:31.731Z,20.01
2023-05-10T07:22:34.924Z,20.61
2023-05-10T07:25:37.206Z,18.94
2023-05-10T07:28:40.159Z,18.87
2023-05-10T07:31:43.838Z,19.64
2023-05-10T07:34:46.117Z,18.93
2023-05-10T07:37:48.613Z,18.84
2023-05-10T07:40:50.948Z,18.16
2023-05-10T07:43:53.295Z,18.18
2023-05-10T07:46:56.630Z,19.47
2023-05-10T07:49:58.879Z,19.80
2023-05-10T07:53:01.329Z,19.62
2023-05-10T07:56:33.398Z,20.21
2023-05-10T07:59:35.754Z,19.62
2023-05-10T08:02:38.613Z,17.90
2023-05-10T08:05:41.573Z,19.29
2023-05-10T08:08:44.023Z,18.70
2023-05-10T08:11:46.425Z,17.68
2023-05-10T08:14:48.937Z,17.81
2023-05-10T08:17:51.342Z,20.10
2023-05-10T08:20:53.698Z,21.46
2023-05-10T08:23:59.938Z,22.14
2023-05-10T08:27:02.296Z,23.25
2023-05-10T08:30:04.912Z,23.50
2023-05-10T08:33:07.269Z,22.43
2023-05-10T08:36:09.844Z,21.05
2023-05-10T08:39:22.964Z,19.87
2023-05-10T08:42:32.078Z,20.97
2023-05-10T08:45:41.386Z,20.93
2023-05-10T08:48:44.932Z,20.62
2023-05-10T08:51:55.922Z,20.47
2023-05-10T08:54:58.673Z,19.78
2023-05-10T08:58:01.460Z,19.08
2023-05-10T09:01:04.541Z,19.77
2023-05-10T09:04:07.513Z,19.04
2023-05-10T09:07:09.890Z,19.94
2023-05-10T09:10:12.703Z,20.49
2023-05-10T09:13:19.014Z,22.45
2023-05-10T09:16:22.440Z,19.54
2023-05-10T09:19:25.024Z,19.50
2023-05-10T09:22:28.302Z,18.62
2023-05-10T09:25:30.765Z,18.71
2023-05-10T09:28:51.456Z,18.53
2023-05-10T09:31:55.834Z,18.07
2023-05-10T09:34:58.383Z,18.45
2023-05-10T09:38:04.505Z,19.50
2023-05-10T09:41:18.439Z,22.27
2023-05-10T09:44:20.876Z,21.04
2023-05-10T09:47:23.454Z,20.03
2023-05-10T09:50:26.709Z,19.28
2023-05-10T09:53:29.160Z,20.19
2023-05-10T09:56:40.012Z,19.89
2023-05-10T09:59:44.308Z,19.65
2023-05-10T10:02:56.585Z,21.30
2023-05-10T10:05:59.075Z,22.70
2023-05-10T10:09:01.463Z,23.79
2023-05-10T10:12:04.654Z,23.13
2023-05-10T10:15:08.721Z,22.74
2023-05-10T10:18:16.236Z,22.51
2023-05-10T10:21:18.693Z,21.31
2023-05-10T10:24:20.870Z,23.30
2023-05-10T10:27:29.653Z,21.59
2023-05-10T10:30:48.014Z,20.51
2023-05-10T10:33:59.707Z,21.23
2023-05-10T10:37:06.380Z,20.43
2023-05-10T10:40:44.340Z,19.66
2023-05-10T10:43:46.647Z,19.66
2023-05-10T10:47:02.606Z,19.62
2023-05-10T10:50:09.016Z,19.89
2023-05-10T10:53:12.392Z,19.03
2023-05-10T10:56:16.318Z,18.72
2023-05-10T10:59:28.911Z,18.45
2023-05-10T11:02:46.820Z,18.45
2023-05-10T11:05:50.557Z,19.35
2023-05-10T11:08:53.878Z,19.78
2023-05-10T11:11:56.529Z,20.05
2023-05-10T11:14:59.047Z,21.04
2023-05-10T11:18:37.440Z,21.13
2023-05-10T11:22:14.090Z,20.33
2023-05-10T11:25:16.402Z,19.71
2023-05-10T11:28:20.464Z,19.57
2023-05-10T11:31:23.961Z,19.59
2023-05-10T11:34:36.387Z,19.73
2023-05-10T11:37:42.220Z,19.18
2023-05-10T11:40:44.672Z,19.72
2023-05-10T11:43:48.850Z,19.83
2023-05-10T11:46:51.382Z,20.05
2023-05-10T11:49:54.287Z,20.33
2023-05-10T11:52:57.766Z,20.13
2023-05-10T11:56:11.164Z,20.16
2023-05-10T11:59:16.020Z,20.49
2023-05-10T12:02:18.512Z,20.49
2023-05-10T12:05:21.102Z,20.25
2023-05-10T12:08:25.787Z,20.05
2023-05-10T12:11:29.733Z,20.26
2023-05-10T12:14:36.179Z,19.63
2023-05-10T12:17:41.978Z,19.66
2023-05-10T12:20:45.649Z,19.45
2023-05-10T12:23:49.727Z,19.57
2023-05-10T12:26:51.979Z,19.44
2023-05-10T12:29:55.690Z,19.59
2023-05-10T12:33:12.568Z,19.46
2023-05-10T12:36:16.667Z,19.07
2023-05-10T12:39:19.056Z,18.87
2023-05-10T12:42:21.831Z,19.27
2023-05-10T12:45:24.170Z,19.39
2023-05-10T12:48:26.761Z,19.54
2023-05-10T12:51:29.066Z,19.82
2023-05-10T12:54:31.600Z,19.91
2023-05-10T12:57:34.359Z,20.13
2023-05-10T13:00:38.953Z,20.04
2023-05-10T13:03:41.250Z,20.26
2023-05-10T13:06:43.562Z,19.75
2023-05-10T13:09:45.979Z,20.03
2023-05-10T13:12:48.265Z,20.02
2023-05-10T13:15:50.713Z,20.06
2023-05-10T13:18:53.111Z,20.83
2023-05-10T13:21:55.504Z,20.55
2023-05-10T13:24:57.917Z,20.41
2023-05-10T13:28:00.215Z,20.51
2023-05-10T13:31:02.515Z,20.12
2023-05-10T13:34:06.198Z,20.15
2023-05-10T13:37:08.461Z,20.12
2023-05-10T13:40:11.579Z,20.25
2023-05-10T13:43:13.842Z,20.31
2023-05-10T13:46:16.314Z,19.97
2023-05-10T13:49:18.599Z,19.69
2023-05-10T13:52:21.132Z,19.84
2023-05-10T13:55:23.465Z,20.06
2023-05-10T13:58:25.760Z,20.00
2023-05-10T14:01:28.051Z,19.95
2023-05-10T14:04:31.354Z,20.12
2023-05-10T14:07:33.647Z,20.20
2023-05-10T14:10:35.958Z,19.82
2023-05-10T14:13:38.370Z,20.12
2023-05-10T14:16:45.413Z,20.14
2023-05-10T14:19:47.757Z,20.46
2023-05-10T14:22:50.194Z,20.16
2023-05-10T14:25:53.494Z,19.96
2023-05-10T14:28:55.889Z,19.76
2023-05-10T14:31:58.297Z,19.75
2023-05-10T14:35:00.904Z,19.81
2023-05-10T14:38:04.765Z,20.01
2023-05-10T14:41:07.917Z,19.84
2023-05-10T14:44:11.332Z,19.20
2023-05-10T14:47:13.625Z,18.90
2023-05-10T14:50:24.993Z,19.13
2023-05-10T14:53:37.537Z,18.98
2023-05-10T14:56:39.932Z,18.73
2023-05-10T14:59:42.149Z,18.81
2023-05-10T15:02:44.767Z,18.78
2023-05-10T15:05:47.680Z,19.31
2023-05-10T15:08:49.951Z,19.24
2023-05-10T15:11:52.301Z,19.20
2023-05-10T15:14:54.714Z,19.21
2023-05-10T15:17:57.161Z,18.90
2023-05-10T15:20:59.494Z,18.80
2023-05-10T15:24:02.056Z,18.90
2023-05-10T15:27:04.387Z,18.65
2023-05-10T15:30:07.503Z,18.78
2023-05-10T15:33:09.905Z,18.68
2023-05-10T15:36:12.402Z,18.84
2023-05-10T15:39:14.690Z,18.70
2023-05-10T15:42:17.070Z,18.47
2023-05-10T15:45:19.960Z,18.57
2023-05-10T15:48:22.438Z,18.20
2023-05-10T15:51:24.714Z,18.33
2023-05-10T15:54:27.075Z,18.21
2023-05-10T15:57:29.445Z,18.25
2023-05-10T16:00:31.757Z,17.99
2023-05-10T16:03:37.299Z,17.80
2023-05-10T16:06:39.923Z,17.76
2023-05-10T16:09:42.239Z,17.67
2023-05-10T16:12:44.579Z,17.65
2023-05-10T16:15:47.050Z,17.43
2023-05-10T16:18:49.434Z,17.47
2023-05-10T16:21:51.854Z,17.33
2023-05-10T16:24:54.302Z,17.20
2023-05-10T16:27:56.601Z,17.20
2023-05-10T16:30:59.027Z,17.25
2023-05-10T16:34:01.459Z,17.32
2023-05-10T16:37:04.212Z,17.13
2023-05-10T16:40:08.839Z,17.13
2023-05-10T16:43:11.343Z,17.11
2023-05-10T16:46:13.655Z,16.93
2023-05-10T16:49:16.556Z,16.94
2023-05-10T16:52:18.864Z,16.78
2023-05-10T16:55:22.049Z,16.66
2023-05-10T16:58:25.532Z,16.67
2023-05-10T17:01:28.000Z,16.52
2023-05-10T17:04:30.340Z,16.49
2023-05-10T17:07:32.660Z,16.39
2023-05-10T17:10:35.591Z,16.29
2023-05-10T17:13:38.934Z,16.39
2023-05-10T17:16:41.979Z,16.25
2023-05-10T17:19:47.608Z,16.20
2023-05-10T17:22:49.999Z,16.17
2023-05-10T17:25:52.308Z,16.17
2023-05-10T17:28:55.354Z,16.13
2023-05-10T17:31:58.595Z,15.97
2023-05-10T17:35:01.338Z,15.82
2023-05-10T17:38:03.704Z,15.82
2023-05-10T17:41:06.089Z,15.82
2023-05-10T17:44:08.370Z,15.71
2023-05-10T17:47:10.770Z,15.71
2023-05-10T17:50:13.446Z,15.67
2023-05-10T17:53:15.846Z,15.48
2023-05-10T17:56:18.202Z,15.50
2023-05-10T17:59:21.565Z,15.37
2023-05-10T18:02:24.044Z,15.28
2023-05-10T18:05:26.648Z,15.26
2023-05-10T18:08:30.917Z,15.21
2023-05-10T18:11:35.247Z,15.25
2023-05-10T18:14:41.100Z,15.17
2023-05-10T18:17:44.040Z,15.11
2023-05-10T18:20:46.838Z,15.05
2023-05-10T18:23:49.579Z,15.01
2023-05-10T18:26:52.081Z,14.95
2023-05-10T18:29:54.697Z,14.88
2023-05-10T18:32:58.108Z,14.75
2023-05-10T18:36:00.897Z,14.72
2023-05-10T18:39:03.374Z,14.79
2023-05-10T18:42:08.470Z,14.75
2023-05-10T18:45:11.654Z,14.73
2023-05-10T18:48:14.058Z,14.69
2023-05-10T18:51:16.462Z,14.56
2023-05-10T18:54:18.989Z,14.57
2023-05-10T18:57:22.059Z,14.60
2023-05-10T19:00:24.538Z,14.65
2023-05-10T19:03:27.042Z,14.50
2023-05-10T19:06:29.294Z,14.45
2023-05-10T19:09:32.233Z,14.40
2023-05-10T19:12:34.735Z,14.46
2023-05-10T19:15:37.091Z,14.45
2023-05-10T19:18:40.021Z,14.37
2023-05-10T19:21:42.366Z,14.32
2023-05-10T19:24:45.710Z,14.37
2023-05-10T19:27:48.292Z,14.33
2023-05-10T19:30:50.659Z,14.32
2023-05-10T19:33:53.730Z,14.29
2023-05-10T19:36:57.946Z,14.16
2023-05-10T19:40:00.273Z,14.22
2023-05-10T19:43:11.687Z,14.20
2023-05-10T19:46:13.995Z,14.21
2023-05-10T19:49:17.689Z,14.25
2023-05-10T19:52:20.802Z,14.32
2023-05-10T19:55:29.202Z,14.20
2023-05-10T19:58:31.552Z,14.20
2023-05-10T20:01:35.049Z,14.15
2023-05-10T20:04:38.352Z,14.06
2023-05-10T20:07:44.572Z,14.05
2023-05-10T20:10:47.107Z,13.85
2023-05-10T20:13:49.350Z,13.89
2023-05-10T20:16:57.875Z,13.82
2023-05-10T20:20:00.172Z,13.73
2023-05-10T20:23:02.464Z,13.69
2023-05-10T20:26:04.995Z,13.62
2023-05-10T20:29:07.385Z,13.64
2023-05-10T20:32:09.648Z,13.59
2023-05-10T20:35:17.975Z,13.70
2023-05-10T20:38:23.384Z,13.67
2023-05-10T20:41:27.108Z,13.53
2023-05-10T20:44:36.038Z,13.42
2023-05-10T20:47:39.867Z,13.29
2023-05-10T20:50:46.138Z,13.30
2023-05-10T20:53:52.024Z,13.35
2023-05-10T20:56:54.381Z,13.32
2023-05-10T20:59:57.821Z,13.44
2023-05-10T21:03:00.632Z,13.37
2023-05-10T21:06:03.827Z,13.41
2023-05-10T21:09:06.211Z,13.30
2023-05-10T21:12:09.407Z,13.25
2023-05-10T21:15:11.940Z,13.26
2023-05-10T21:18:17.098Z,13.20
2023-05-10T21:21:20.892Z,13.22
2023-05-10T21:24:23.359Z,13.10
2023-05-10T21:27:25.580Z,13.11
2023-05-10T21:30:28.105Z,13.14
2023-05-10T21:33:30.543Z,13.11
2023-05-10T21:36:32.851Z,13.15
2023-05-10T21:39:35.111Z,13.22
2023-05-10T21:42:37.389Z,13.20
2023-05-10T21:45:39.872Z,13.24
2023-05-10T21:48:42.228Z,13.24
2023-05-10T21:51:44.553Z,13.23
2023-05-10T21:54:46.903Z,13.18
2023-05-10T21:57:50.322Z,13.19
2023-05-10T22:00:52.601Z,13.08
2023-05-10T22:03:54.860Z,13.12
2023-05-10T22:06:57.274Z,13.00
2023-05-10T22:09:59.741Z,12.89
2023-05-10T22:13:02.000Z,12.81
2023-05-10T22:16:04.460Z,12.80
2023-05-10T22:19:07.128Z,12.74
2023-05-10T22:22:09.790Z,12.52
2023-05-10T22:25:12.125Z,12.38
2023-05-10T22:28:14.371Z,12.39
2023-05-10T22:31:16.682Z,12.31
2023-05-10T22:34:18.988Z,12.26
2023-05-10T22:37:21.276Z,12.17
2023-05-10T22:40:23.584Z,12.23
2023-05-10T22:43:25.867Z,12.21
2023-05-10T22:46:29.626Z,12.14
2023-05-10T22:49:33.210Z,12.10
2023-05-10T22:52:35.724Z,12.17
2023-05-10T22:55:38.066Z,12.19
2023-05-10T22:58:40.544Z,12.17
2023-05-10T23:01:43.085Z,12.34
2023-05-10T23:04:45.401Z,12.43
2023-05-10T23:07:52.982Z,12.27
2023-05-10T23:10:55.553Z,12.47
2023-05-10T23:13:57.846Z,12.41
2023-05-10T23:17:00.183Z,12.49
2023-05-10T23:20:03.126Z,12.47
2023-05-10T23:23:05.393Z,12.49
2023-05-10T23:26:08.846Z,12.44
2023-05-10T23:29:11.100Z,12.44
2023-05-10T23:32:13.411Z,12.38
2023-05-10T23:35:16.071Z,12.45
2023-05-10T23:38:18.325Z,12.27
2023-05-10T23:41:20.578Z,12.24
2023-05-10T23:44:23.516Z,12.19
2023-05-10T23:47:26.047Z,12.31
2023-05-10T23:50:28.400Z,12.34
2023-05-10T23:53:30.666Z,12.36
2023-05-10T23:56:33.088Z,12.28
2023-05-10T23:59:35.379Z,12.20
